createdAt,value
2019-01-29T00:00:21.694Z,24.40
2019-01-29T00:02:50.268Z,19.23
2019-01-29T00:05:18.848Z,22.77
2019-01-29T00:07:47.379Z,25.97
2019-01-29T00:10:16.057Z,25.73
2019-01-29T00:12:44.524Z,20.43
2019-01-29T00:15:13.905Z,21.40
2019-01-29T00:17:42.445Z,22.77
2019-01-29T00:20:11.344Z,27.07
2019-01-29T00:22:39.873Z,27.03
2019-01-29T00:25:09.961Z,20.43
2019-01-29T00:27:38.491Z,22.77
2019-01-29T00:30:10.149Z,20.90
2019-01-29T00:32:38.621Z,21.60
2019-01-29T00:35:07.694Z,23.77
2019-01-29T00:37:36.405Z,20.17
2019-01-29T00:40:13.444Z,21.23
2019-01-29T00:42:41.913Z,24.90
2019-01-29T00:45:13.438Z,21.73
2019-01-29T00:47:41.946Z,24.57
2019-01-29T00:50:12.443Z,21.50
2019-01-29T00:52:42.184Z,23.73
2019-01-29T00:55:15.773Z,19.97
2019-01-29T00:57:44.340Z,18.97
2019-01-29T01:00:16.216Z,24.67
2019-01-29T01:02:44.800Z,20.63
2019-01-29T01:05:13.904Z,20.90
2019-01-29T01:07:42.511Z,23.53
2019-01-29T01:10:14.112Z,17.40
2019-01-29T01:12:42.558Z,19.40
2019-01-29T01:15:12.859Z,17.93
2019-01-29T01:17:41.360Z,16.80
2019-01-29T01:20:12.861Z,14.17
2019-01-29T01:22:41.309Z,18.10
2019-01-29T01:25:10.702Z,18.57
2019-01-29T01:27:39.140Z,20.30
2019-01-29T01:30:11.261Z,18.77
2019-01-29T01:32:39.695Z,18.50
2019-01-29T01:35:08.524Z,20.80
2019-01-29T01:37:36.963Z,23.63
2019-01-29T01:40:08.504Z,22.33
2019-01-29T01:42:37.002Z,27.60
2019-01-29T01:45:08.837Z,24.90
2019-01-29T01:47:37.309Z,18.87
2019-01-29T01:50:07.788Z,25.10
2019-01-29T01:52:36.248Z,20.70
2019-01-29T01:55:07.243Z,21.10
2019-01-29T01:57:35.696Z,19.37
2019-01-29T02:00:06.750Z,22.00
2019-01-29T02:02:35.216Z,20.20
2019-01-29T02:05:04.733Z,17.10
2019-01-29T02:07:33.187Z,21.67
2019-01-29T02:10:01.628Z,23.30
2019-01-29T02:12:30.107Z,24.53
2019-01-29T02:14:58.537Z,20.37
2019-01-29T02:17:27.081Z,20.83
2019-01-29T02:19:55.535Z,21.50
2019-01-29T02:22:24.040Z,19.17
2019-01-29T02:24:52.524Z,18.40
2019-01-29T02:27:20.995Z,19.00
2019-01-29T02:29:49.465Z,22.33
2019-01-29T02:32:18.008Z,25.13
2019-01-29T02:34:46.535Z,21.63
2019-01-29T02:37:14.994Z,29.33
2019-01-29T02:39:43.566Z,24.40
2019-01-29T02:42:12.149Z,26.30
2019-01-29T02:44:40.632Z,26.63
2019-01-29T02:47:09.086Z,28.77
2019-01-29T02:49:37.543Z,32.50
2019-01-29T02:52:06.051Z,27.73
2019-01-29T02:54:34.581Z,26.17
2019-01-29T02:57:03.045Z,27.83
2019-01-29T02:59:31.505Z,32.70
2019-01-29T03:01:59.949Z,30.83
2019-01-29T03:04:28.862Z,31.77
2019-01-29T03:06:57.303Z,25.90
2019-01-29T03:09:26.148Z,22.70
2019-01-29T03:11:54.636Z,24.80
2019-01-29T03:14:23.099Z,25.70
2019-01-29T03:16:51.548Z,29.40
2019-01-29T03:19:20.011Z,24.13
2019-01-29T03:21:48.466Z,27.73
2019-01-29T03:24:16.925Z,27.33
2019-01-29T03:26:45.363Z,33.70
2019-01-29T03:29:13.859Z,31.60
2019-01-29T03:31:42.365Z,31.27
2019-01-29T03:34:10.828Z,27.83
2019-01-29T03:36:39.267Z,30.07
2019-01-29T03:39:08.477Z,31.73
2019-01-29T03:41:36.983Z,27.60
2019-01-29T03:44:05.633Z,32.50
2019-01-29T03:46:34.207Z,28.57
2019-01-29T03:49:02.799Z,28.67
2019-01-29T03:51:31.240Z,28.63
2019-01-29T03:54:00.038Z,29.37
2019-01-29T03:56:28.626Z,30.67
2019-01-29T03:58:57.156Z,30.30
2019-01-29T04:01:25.595Z,24.13
2019-01-29T04:03:54.136Z,23.97
2019-01-29T04:06:22.580Z,26.60
2019-01-29T04:08:51.215Z,25.27
2019-01-29T04:11:19.732Z,27.37
2019-01-29T04:13:48.656Z,33.70
2019-01-29T04:16:17.232Z,25.33
2019-01-29T04:18:45.719Z,27.17
2019-01-29T04:21:14.166Z,22.97
2019-01-29T04:23:47.791Z,24.60
2019-01-29T04:26:12.784Z,23.93
2019-01-29T04:28:41.256Z,24.87
2019-01-29T04:31:09.708Z,22.57
2019-01-29T04:33:38.144Z,22.47
2019-01-29T04:36:06.676Z,21.53
2019-01-29T04:38:35.120Z,23.07
2019-01-29T04:41:03.652Z,20.33
2019-01-29T04:43:32.091Z,20.10
2019-01-29T04:46:00.567Z,26.30
2019-01-29T04:48:29.126Z,27.20
2019-01-29T04:50:57.629Z,21.70
2019-01-29T04:53:26.163Z,22.80
2019-01-29T04:55:54.632Z,22.50
2019-01-29T04:58:23.130Z,26.57
2019-01-29T05:00:51.699Z,24.07
2019-01-29T05:03:20.179Z,22.13
2019-01-29T05:05:48.688Z,26.70
2019-01-29T05:08:17.150Z,26.37
2019-01-29T05:10:45.619Z,23.13
2019-01-29T05:13:14.141Z,23.17
2019-01-29T05:15:42.593Z,26.87
2019-01-29T05:18:11.130Z,30.17
2019-01-29T05:20:39.607Z,31.87
2019-01-29T05:23:08.099Z,30.70
2019-01-29T05:25:36.569Z,24.80
2019-01-29T05:28:05.290Z,27.17
2019-01-29T05:30:33.917Z,27.97
2019-01-29T05:33:02.361Z,26.20
2019-01-29T05:35:30.821Z,28.77
2019-01-29T05:37:59.275Z,31.43
2019-01-29T05:40:27.743Z,28.97
2019-01-29T05:42:56.188Z,31.87
2019-01-29T05:45:25.398Z,28.90
2019-01-29T05:47:53.964Z,31.50
2019-01-29T05:50:22.572Z,30.80
2019-01-29T05:52:51.021Z,33.30
2019-01-29T05:55:19.481Z,30.53
2019-01-29T05:57:47.929Z,26.57
2019-01-29T06:00:19.208Z,31.43
2019-01-29T06:02:48.674Z,30.63
2019-01-29T06:05:17.714Z,33.00
2019-01-29T06:07:46.359Z,34.60
2019-01-29T06:10:16.671Z,34.97
2019-01-29T06:12:45.317Z,29.50
2019-01-29T06:15:16.592Z,33.20
2019-01-29T06:17:45.373Z,32.67
2019-01-29T06:20:18.408Z,36.43
2019-01-29T06:22:47.542Z,31.33
2019-01-29T06:25:16.149Z,35.80
2019-01-29T06:27:44.710Z,35.07
2019-01-29T06:30:15.837Z,34.23
2019-01-29T06:32:44.419Z,35.83
2019-01-29T06:35:15.141Z,35.47
2019-01-29T06:37:43.736Z,34.90
2019-01-29T06:40:21.312Z,34.83
2019-01-29T06:42:51.124Z,36.57
2019-01-29T06:45:21.973Z,45.57
2019-01-29T06:47:50.929Z,41.10
2019-01-29T06:50:21.515Z,46.47
2019-01-29T06:52:50.175Z,34.30
2019-01-29T06:55:20.624Z,39.63
2019-01-29T06:57:55.173Z,32.57
2019-01-29T07:00:22.325Z,33.17
2019-01-29T07:02:51.004Z,35.10
2019-01-29T07:05:19.522Z,30.10
2019-01-29T07:07:47.990Z,31.70
2019-01-29T07:10:18.876Z,34.50
2019-01-29T07:12:47.410Z,28.67
2019-01-29T07:15:36.478Z,34.10
2019-01-29T07:18:07.078Z,35.90
2019-01-29T07:20:35.519Z,38.40
2019-01-29T07:23:04.423Z,31.80
2019-01-29T07:25:33.027Z,32.23
2019-01-29T07:28:01.573Z,29.93
2019-01-29T07:30:30.056Z,33.25
2019-01-29T07:32:58.584Z,29.40
2019-01-29T07:35:27.056Z,26.43
2019-01-29T07:37:55.531Z,30.20
2019-01-29T07:40:23.975Z,27.37
2019-01-29T07:42:52.513Z,28.97
2019-01-29T07:45:21.236Z,32.30
2019-01-29T07:47:49.701Z,34.47
2019-01-29T07:50:18.212Z,36.20
2019-01-29T07:52:46.760Z,29.80
2019-01-29T07:55:15.291Z,28.50
2019-01-29T07:57:43.809Z,25.63
2019-01-29T08:00:15.126Z,27.93
2019-01-29T08:02:43.720Z,28.33
2019-01-29T08:05:12.715Z,23.90
2019-01-29T08:07:41.440Z,21.60
2019-01-29T08:10:13.408Z,27.87
2019-01-29T08:12:41.880Z,25.57
2019-01-29T08:15:16.792Z,21.93
2019-01-29T08:17:45.300Z,19.47
2019-01-29T08:20:15.343Z,23.23
2019-01-29T08:22:44.141Z,18.13
2019-01-29T08:25:13.340Z,18.97
2019-01-29T08:27:41.846Z,19.67
2019-01-29T08:30:15.779Z,19.30
2019-01-29T08:32:44.292Z,18.20
2019-01-29T08:35:15.473Z,26.63
2019-01-29T08:37:44.065Z,20.00
2019-01-29T08:40:14.268Z,25.10
2019-01-29T08:42:42.780Z,21.10
2019-01-29T08:45:16.185Z,24.77
2019-01-29T08:47:44.688Z,22.23
2019-01-29T08:50:22.016Z,18.67
2019-01-29T08:52:50.810Z,21.47
2019-01-29T08:55:19.526Z,19.57
2019-01-29T08:57:47.963Z,17.90
2019-01-29T09:00:19.076Z,14.90
2019-01-29T09:02:48.055Z,16.07
2019-01-29T09:05:17.471Z,20.03
2019-01-29T09:07:46.322Z,18.73
2019-01-29T09:10:19.772Z,15.23
2019-01-29T09:12:48.368Z,16.80
2019-01-29T09:15:18.645Z,12.60
2019-01-29T09:17:47.556Z,12.63
2019-01-29T09:20:18.335Z,15.67
2019-01-29T09:22:46.877Z,13.60
2019-01-29T09:25:21.001Z,12.20
2019-01-29T09:27:46.192Z,9.73
2019-01-29T09:30:19.535Z,12.47
2019-01-29T09:32:48.273Z,11.20
2019-01-29T09:35:16.900Z,13.07
2019-01-29T09:37:45.689Z,12.17
2019-01-29T09:40:19.671Z,9.43
2019-01-29T09:42:48.457Z,9.10
2019-01-29T09:45:19.454Z,10.83
2019-01-29T09:47:48.242Z,16.57
2019-01-29T09:50:19.667Z,7.93
2019-01-29T09:52:48.626Z,12.57
2019-01-29T09:55:28.158Z,10.53
2019-01-29T09:57:49.509Z,6.60
2019-01-29T10:00:21.672Z,7.63
2019-01-29T10:02:50.524Z,11.20
2019-01-29T10:05:19.797Z,9.83
2019-01-29T10:07:48.625Z,6.43
2019-01-29T10:10:17.309Z,9.90
2019-01-29T10:12:45.934Z,5.17
2019-01-29T10:15:26.591Z,7.63
2019-01-29T10:17:55.279Z,9.30
2019-01-29T10:20:24.317Z,4.80
2019-01-29T10:22:52.975Z,8.60
2019-01-29T10:25:21.827Z,9.33
2019-01-29T10:27:50.324Z,7.97
2019-01-29T10:30:21.163Z,4.33
2019-01-29T10:32:49.691Z,6.63
2019-01-29T10:35:20.965Z,7.90
2019-01-29T10:37:49.556Z,6.60
2019-01-29T10:40:20.684Z,5.73
2019-01-29T10:42:49.597Z,5.63
2019-01-29T10:45:20.329Z,5.63
2019-01-29T10:47:49.186Z,9.90
2019-01-29T10:50:20.600Z,8.20
2019-01-29T10:52:49.804Z,6.07
2019-01-29T10:55:18.385Z,4.60
2019-01-29T10:57:47.081Z,3.10
2019-01-29T11:00:21.600Z,5.47
2019-01-29T11:02:50.348Z,5.13
2019-01-29T11:05:20.224Z,6.90
2019-01-29T11:07:49.045Z,5.23
2019-01-29T11:10:19.125Z,5.33
2019-01-29T11:12:47.664Z,6.30
2019-01-29T11:15:21.851Z,4.67
2019-01-29T11:17:50.452Z,5.90
2019-01-29T11:20:19.632Z,5.20
2019-01-29T11:22:48.162Z,5.60
2019-01-29T11:25:19.723Z,5.80
2019-01-29T11:27:48.269Z,2.77
2019-01-29T11:30:22.324Z,3.67
2019-01-29T11:32:50.868Z,4.87
2019-01-29T11:35:19.560Z,3.17
2019-01-29T11:37:48.053Z,1.93
2019-01-29T11:40:22.557Z,5.10
2019-01-29T11:42:51.116Z,5.43
2019-01-29T11:45:25.225Z,3.37
2019-01-29T11:47:53.795Z,4.77
2019-01-29T11:50:22.498Z,3.37
2019-01-29T11:52:51.030Z,4.63
2019-01-29T11:55:19.688Z,3.23
2019-01-29T11:57:48.233Z,5.63
2019-01-29T12:00:21.637Z,4.37
2019-01-29T12:02:50.130Z,5.37
2019-01-29T12:05:18.794Z,8.43
2019-01-29T12:07:47.479Z,4.87
2019-01-29T12:10:16.056Z,6.87
2019-01-29T12:12:44.669Z,4.27
2019-01-29T12:15:16.343Z,2.43
2019-01-29T12:17:44.900Z,4.23
2019-01-29T12:20:16.112Z,4.37
2019-01-29T12:22:44.777Z,6.97
2019-01-29T12:25:13.873Z,4.40
2019-01-29T12:27:42.485Z,5.63
2019-01-29T12:30:22.874Z,6.57
2019-01-29T12:32:51.905Z,4.10
2019-01-29T12:35:20.568Z,6.83
2019-01-29T12:37:49.137Z,5.17
2019-01-29T12:40:17.745Z,9.30
2019-01-29T12:42:46.321Z,4.10
2019-01-29T12:45:17.928Z,6.20
2019-01-29T12:47:47.016Z,5.47
2019-01-29T12:50:24.662Z,6.27
2019-01-29T12:52:58.228Z,5.67
2019-01-29T12:55:26.876Z,4.03
2019-01-29T12:57:55.479Z,6.77
2019-01-29T13:00:25.735Z,5.40
2019-01-29T13:02:54.284Z,5.77
2019-01-29T13:05:23.004Z,7.97
2019-01-29T13:07:51.587Z,6.27
2019-01-29T13:10:25.060Z,6.77
2019-01-29T13:12:54.133Z,6.30
2019-01-29T13:15:34.012Z,6.10
2019-01-29T13:18:02.775Z,7.13
2019-01-29T13:20:31.675Z,5.73
2019-01-29T13:23:00.180Z,6.83
2019-01-29T13:25:28.779Z,5.20
2019-01-29T13:27:57.218Z,5.13
2019-01-29T13:30:34.419Z,6.40
2019-01-29T13:33:04.552Z,7.33
2019-01-29T13:35:34.972Z,3.87
2019-01-29T13:38:03.676Z,6.33
2019-01-29T13:40:32.204Z,7.20
2019-01-29T13:43:00.712Z,8.47
2019-01-29T13:45:29.300Z,7.83
2019-01-29T13:47:57.861Z,5.03
2019-01-29T13:50:32.325Z,5.43
2019-01-29T13:53:00.870Z,4.17
2019-01-29T13:55:29.566Z,7.27
2019-01-29T13:57:58.030Z,7.10
2019-01-29T14:00:31.772Z,7.40
2019-01-29T14:03:00.655Z,3.83
2019-01-29T14:05:29.223Z,6.50
2019-01-29T14:07:57.820Z,4.43
2019-01-29T14:10:26.694Z,4.63
2019-01-29T14:12:55.221Z,6.37
2019-01-29T14:15:38.791Z,5.30
2019-01-29T14:18:07.596Z,6.90
2019-01-29T14:20:36.104Z,7.30
2019-01-29T14:23:05.704Z,8.90
2019-01-29T14:25:34.340Z,9.30
2019-01-29T14:28:02.792Z,5.87
2019-01-29T14:30:31.872Z,5.93
2019-01-29T14:33:00.459Z,6.97
2019-01-29T14:35:28.969Z,7.33
2019-01-29T14:38:06.432Z,8.37
2019-01-29T14:40:35.459Z,6.93
2019-01-29T14:43:05.207Z,5.07
2019-01-29T14:45:34.076Z,8.20
2019-01-29T14:48:02.535Z,7.13
2019-01-29T14:50:31.324Z,7.00
2019-01-29T14:52:59.851Z,7.77
2019-01-29T14:55:28.493Z,7.73
2019-01-29T14:57:57.041Z,5.03
2019-01-29T15:00:31.383Z,4.33
2019-01-29T15:02:59.868Z,5.97
2019-01-29T15:05:28.568Z,7.20
2019-01-29T15:07:57.233Z,7.97
2019-01-29T15:10:28.132Z,9.70
2019-01-29T15:12:57.635Z,9.03
2019-01-29T15:15:32.112Z,5.97
2019-01-29T15:18:21.510Z,8.57
2019-01-29T15:20:50.118Z,4.70
2019-01-29T15:23:21.633Z,7.07
2019-01-29T15:25:50.091Z,8.93
2019-01-29T15:28:20.606Z,8.30
2019-01-29T15:30:49.282Z,7.40
2019-01-29T15:33:17.732Z,7.23
2019-01-29T15:35:49.037Z,7.73
2019-01-29T15:38:17.547Z,9.40
2019-01-29T15:40:46.158Z,8.93
2019-01-29T15:43:14.593Z,6.50
2019-01-29T15:45:43.124Z,7.17
2019-01-29T15:48:11.576Z,7.87
2019-01-29T15:50:40.182Z,6.83
2019-01-29T15:53:08.881Z,5.00
2019-01-29T15:55:40.053Z,5.70
2019-01-29T15:58:09.963Z,6.80
2019-01-29T16:00:41.999Z,6.33
2019-01-29T16:03:10.689Z,5.73
2019-01-29T16:05:44.876Z,7.50
2019-01-29T16:08:14.264Z,6.93
2019-01-29T16:10:49.522Z,5.97
2019-01-29T16:13:18.104Z,2.70
2019-01-29T16:15:49.153Z,6.20
2019-01-29T16:18:17.865Z,6.07
2019-01-29T16:20:46.722Z,4.37
2019-01-29T16:23:15.237Z,6.37
2019-01-29T16:25:43.739Z,5.57
2019-01-29T16:28:12.332Z,8.63
2019-01-29T16:30:40.763Z,7.13
2019-01-29T16:33:09.300Z,5.60
2019-01-29T16:35:40.370Z,6.13
2019-01-29T16:38:10.026Z,8.87
2019-01-29T16:40:46.402Z,5.57
2019-01-29T16:43:15.313Z,5.93
2019-01-29T16:45:43.998Z,7.47
2019-01-29T16:48:14.174Z,5.07
2019-01-29T16:50:42.776Z,6.37
2019-01-29T16:53:11.505Z,5.77
2019-01-29T16:55:39.954Z,8.57
2019-01-29T16:58:08.958Z,6.43
2019-01-29T17:00:40.288Z,3.53
2019-01-29T17:03:08.828Z,8.00
2019-01-29T17:05:37.400Z,5.43
2019-01-29T17:08:08.570Z,3.97
2019-01-29T17:10:37.118Z,4.50
2019-01-29T17:13:06.116Z,5.40
2019-01-29T17:15:36.804Z,5.70
2019-01-29T17:18:10.771Z,6.30
2019-01-29T17:20:45.506Z,12.73
2019-01-29T17:23:14.220Z,5.63
2019-01-29T17:25:42.811Z,6.80
2019-01-29T17:28:11.423Z,6.13
2019-01-29T17:30:42.105Z,5.83
2019-01-29T17:33:11.434Z,7.10
2019-01-29T17:35:42.422Z,6.97
2019-01-29T17:38:12.987Z,8.60
2019-01-29T17:40:42.007Z,7.70
2019-01-29T17:43:10.628Z,9.60
2019-01-29T17:45:42.165Z,7.43
2019-01-29T17:48:12.255Z,7.00
2019-01-29T17:50:46.467Z,5.83
2019-01-29T17:53:15.132Z,10.87
2019-01-29T17:55:47.507Z,5.00
2019-01-29T17:58:16.410Z,6.53
2019-01-29T18:00:48.898Z,5.87
2019-01-29T18:03:17.616Z,8.47
2019-01-29T18:05:46.553Z,7.17
2019-01-29T18:08:15.069Z,7.93
2019-01-29T18:10:43.701Z,10.00
2019-01-29T18:13:12.273Z,10.77
2019-01-29T18:15:40.998Z,13.67
2019-01-29T18:18:09.564Z,8.20
2019-01-29T18:20:38.181Z,10.97
2019-01-29T18:23:06.715Z,10.13
2019-01-29T18:25:35.164Z,9.83
2019-01-29T18:28:11.776Z,10.80
2019-01-29T18:30:40.457Z,10.47
2019-01-29T18:33:13.682Z,12.13
2019-01-29T18:35:42.146Z,10.20
2019-01-29T18:38:14.274Z,11.50
2019-01-29T18:40:51.204Z,8.77
2019-01-29T18:43:19.716Z,13.60
2019-01-29T18:45:48.214Z,8.17
2019-01-29T18:48:18.137Z,7.03
2019-01-29T18:50:47.408Z,10.07
2019-01-29T18:53:15.904Z,10.80
2019-01-29T18:55:44.488Z,7.03
2019-01-29T18:58:15.082Z,20.13
2019-01-29T19:00:43.153Z,11.73
2019-01-29T19:03:11.676Z,11.33
2019-01-29T19:05:40.146Z,13.03
2019-01-29T19:08:09.003Z,7.67
2019-01-29T19:10:37.553Z,10.67
2019-01-29T19:13:06.214Z,10.70
2019-01-29T19:15:37.881Z,7.97
2019-01-29T19:18:06.661Z,7.77
2019-01-29T19:20:36.894Z,7.13
2019-01-29T19:23:05.422Z,6.83
2019-01-29T19:25:33.986Z,9.50
2019-01-29T19:28:02.518Z,8.73
2019-01-29T19:30:32.806Z,9.97
2019-01-29T19:33:01.304Z,9.43
2019-01-29T19:35:29.968Z,9.10
2019-01-29T19:37:58.559Z,10.80
2019-01-29T19:40:28.160Z,9.40
2019-01-29T19:42:56.787Z,13.17
2019-01-29T19:45:30.853Z,11.60
2019-01-29T19:47:59.647Z,10.23
2019-01-29T19:50:31.181Z,12.40
2019-01-29T19:53:00.657Z,7.50
2019-01-29T19:55:29.389Z,9.30
2019-01-29T19:58:08.801Z,8.07
2019-01-29T20:00:36.378Z,16.83
2019-01-29T20:03:05.362Z,14.80
2019-01-29T20:05:34.057Z,21.23
2019-01-29T20:08:02.618Z,19.20
2019-01-29T20:10:31.063Z,14.57
2019-01-29T20:12:59.566Z,15.93
2019-01-29T20:15:28.197Z,12.40
2019-01-29T20:17:58.521Z,11.07
2019-01-29T20:20:29.628Z,13.30
2019-01-29T20:23:07.376Z,14.70
2019-01-29T20:25:28.602Z,10.37
2019-01-29T20:27:57.380Z,15.30
2019-01-29T20:30:29.008Z,14.67
2019-01-29T20:32:57.844Z,11.37
2019-01-29T20:35:26.435Z,10.00
2019-01-29T20:37:55.204Z,9.53
2019-01-29T20:40:25.447Z,11.10
2019-01-29T20:42:54.234Z,10.50
2019-01-29T20:45:29.284Z,10.10
2019-01-29T20:48:00.312Z,7.30
2019-01-29T20:50:38.042Z,10.63
2019-01-29T20:53:06.763Z,8.87
2019-01-29T20:55:37.386Z,11.60
2019-01-29T20:58:08.306Z,13.07
2019-01-29T21:00:41.808Z,12.07
2019-01-29T21:03:10.342Z,12.63
2019-01-29T21:05:41.932Z,11.20
2019-01-29T21:08:10.941Z,11.13
2019-01-29T21:10:43.901Z,11.30
2019-01-29T21:13:12.432Z,9.07
2019-01-29T21:15:47.354Z,9.67
2019-01-29T21:18:15.914Z,8.77
2019-01-29T21:20:56.600Z,9.67
2019-01-29T21:23:17.796Z,8.60
2019-01-29T21:25:46.560Z,11.53
2019-01-29T21:28:15.464Z,11.03
2019-01-29T21:30:44.489Z,11.67
2019-01-29T21:33:13.076Z,6.80
2019-01-29T21:35:43.111Z,12.00
2019-01-29T21:38:14.928Z,10.30
2019-01-29T21:40:46.689Z,12.53
2019-01-29T21:43:17.239Z,11.30
2019-01-29T21:45:51.680Z,8.53
2019-01-29T21:48:20.611Z,10.48
2019-01-29T21:50:50.570Z,8.87
2019-01-29T21:53:23.094Z,13.20
2019-01-29T21:55:58.638Z,10.07
2019-01-29T21:58:29.813Z,12.07
2019-01-29T22:01:00.346Z,11.67
2019-01-29T22:03:32.297Z,11.73
2019-01-29T22:06:01.088Z,12.10
2019-01-29T22:08:36.361Z,8.53
2019-01-29T22:11:06.231Z,10.32
2019-01-29T22:13:38.490Z,9.85
2019-01-29T22:16:32.070Z,12.70
2019-01-29T22:19:01.498Z,7.83
2019-01-29T22:21:33.440Z,10.37
2019-01-29T22:24:52.705Z,10.55
2019-01-29T22:26:37.934Z,11.60
2019-01-29T22:29:10.512Z,9.83
2019-01-29T22:31:42.027Z,13.50
2019-01-29T22:34:19.704Z,12.73
2019-01-29T22:36:49.718Z,11.60
2019-01-29T22:39:25.710Z,14.03
2019-01-29T22:42:00.169Z,11.03
2019-01-29T22:44:28.697Z,12.90
2019-01-29T22:46:57.347Z,11.27
2019-01-29T22:49:26.055Z,14.90
2019-01-29T22:51:54.734Z,9.57
2019-01-29T22:54:23.275Z,9.60
2019-01-29T22:56:51.749Z,13.83
2019-01-29T22:59:20.458Z,12.53
2019-01-29T23:01:49.247Z,8.10
2019-01-29T23:04:17.930Z,10.90
2019-01-29T23:06:49.652Z,12.83
2019-01-29T23:09:18.135Z,9.87
2019-01-29T23:11:46.696Z,14.47
2019-01-29T23:14:15.276Z,12.20
2019-01-29T23:16:43.711Z,9.83
2019-01-29T23:19:12.333Z,10.50
2019-01-29T23:21:40.936Z,9.00
2019-01-29T23:24:09.606Z,10.07
2019-01-29T23:26:38.206Z,12.27
2019-01-29T23:29:06.781Z,9.93
2019-01-29T23:31:35.492Z,8.27
2019-01-29T23:34:04.788Z,6.23
2019-01-29T23:36:33.388Z,8.27
2019-01-29T23:39:01.895Z,10.97
2019-01-29T23:41:30.551Z,9.37
2019-01-29T23:43:59.261Z,8.43
2019-01-29T23:46:28.000Z,9.20
2019-01-29T23:48:56.717Z,7.83
2019-01-29T23:51:25.281Z,10.03
2019-01-29T23:53:53.844Z,8.63
2019-01-29T23:56:22.509Z,8.73
2019-01-29T23:58:51.157Z,11.47
